createdAt,value
2022-10-25T00:01:47.033Z,16.55
2022-10-25T00:06:59.233Z,16.59
2022-10-25T00:09:32.588Z,16.58
2022-10-25T00:12:06.677Z,16.56
2022-10-25T00:14:39.579Z,16.55
2022-10-25T00:17:12.561Z,16.55
2022-10-25T00:19:52.900Z,16.47
2022-10-25T00:22:26.138Z,16.54
2022-10-25T00:24:59.122Z,16.58
2022-10-25T00:27:31.881Z,16.56
2022-10-25T00:30:05.999Z,16.61
2022-10-25T00:32:38.995Z,16.53
2022-10-25T00:35:13.669Z,16.64
2022-10-25T00:37:46.557Z,16.58
2022-10-25T00:40:19.922Z,16.52
2022-10-25T00:42:52.665Z,16.58
2022-10-25T00:45:27.416Z,16.67
2022-10-25T00:48:04.648Z,16.70
2022-10-25T00:50:47.596Z,16.64
2022-10-25T00:53:24.206Z,16.62
2022-10-25T00:56:03.232Z,16.60
2022-10-25T00:58:39.846Z,16.56
2022-10-25T01:01:14.667Z,16.66
2022-10-25T01:03:52.454Z,16.67
2022-10-25T01:06:32.332Z,16.64
2022-10-25T01:09:06.681Z,16.56
2022-10-25T01:11:39.460Z,16.56
2022-10-25T01:14:15.877Z,16.59
2022-10-25T01:16:58.693Z,16.52
2022-10-25T01:19:47.774Z,16.62
2022-10-25T01:22:28.523Z,16.51
2022-10-25T01:25:28.682Z,16.50
2022-10-25T01:28:08.468Z,16.55
2022-10-25T01:31:07.900Z,16.67
2022-10-25T01:33:50.516Z,16.66
2022-10-25T01:36:32.960Z,16.58
2022-10-25T01:39:15.437Z,16.62
2022-10-25T01:41:58.225Z,16.60
2022-10-25T01:44:40.703Z,16.64
2022-10-25T01:47:26.323Z,16.55
2022-10-25T01:50:03.050Z,16.68
2022-10-25T01:52:36.058Z,16.70
2022-10-25T01:55:11.124Z,16.63
2022-10-25T01:57:59.913Z,16.72
2022-10-25T02:00:37.692Z,16.65
2022-10-25T02:03:19.200Z,16.66
2022-10-25T02:06:02.662Z,16.67
2022-10-25T02:08:40.339Z,16.66
2022-10-25T02:11:23.535Z,16.54
2022-10-25T02:14:08.211Z,16.60
2022-10-25T02:16:45.609Z,16.59
2022-10-25T02:19:23.540Z,16.64
2022-10-25T02:21:59.395Z,16.60
2022-10-25T02:24:37.190Z,16.60
2022-10-25T02:27:12.937Z,16.61
2022-10-25T02:29:47.020Z,16.60
2022-10-25T02:32:22.976Z,16.66
2022-10-25T02:35:00.456Z,16.62
2022-10-25T02:37:41.004Z,16.58
2022-10-25T02:40:16.680Z,16.59
2022-10-25T02:42:54.885Z,16.58
2022-10-25T02:45:27.842Z,16.54
2022-10-25T02:48:05.891Z,16.63
2022-10-25T02:50:40.437Z,16.55
2022-10-25T02:53:13.761Z,16.57
2022-10-25T02:55:46.741Z,16.56
2022-10-25T02:58:20.787Z,16.57
2022-10-25T03:00:53.675Z,16.55
2022-10-25T03:03:27.471Z,16.61
2022-10-25T03:06:01.860Z,16.56
2022-10-25T03:08:35.050Z,16.64
2022-10-25T03:11:09.472Z,16.55
2022-10-25T03:13:42.375Z,16.48
2022-10-25T03:16:16.323Z,16.43
2022-10-25T03:18:49.122Z,16.45
2022-10-25T03:21:23.312Z,16.47
2022-10-25T03:23:56.079Z,16.42
2022-10-25T03:26:28.996Z,16.47
2022-10-25T03:29:01.779Z,16.47
2022-10-25T03:31:34.585Z,16.53
2022-10-25T03:34:07.444Z,16.54
2022-10-25T03:36:41.652Z,16.45
2022-10-25T03:39:14.650Z,16.48
2022-10-25T03:41:47.528Z,16.47
2022-10-25T03:44:21.470Z,16.46
2022-10-25T03:46:54.195Z,16.51
2022-10-25T03:49:31.769Z,16.56
2022-10-25T03:52:07.365Z,16.58
2022-10-25T03:54:42.432Z,16.51
2022-10-25T03:57:15.553Z,16.54
2022-10-25T03:59:50.645Z,16.54
2022-10-25T04:02:23.536Z,16.46
2022-10-25T04:04:59.257Z,16.50
2022-10-25T04:07:33.546Z,16.61
2022-10-25T04:10:07.489Z,16.46
2022-10-25T04:12:42.104Z,16.60
2022-10-25T04:15:18.050Z,16.59
2022-10-25T04:17:54.001Z,16.51
2022-10-25T04:20:29.397Z,16.58
2022-10-25T04:23:06.413Z,16.59
2022-10-25T04:25:39.471Z,16.59
2022-10-25T04:28:12.243Z,16.59
2022-10-25T04:30:45.199Z,16.62
2022-10-25T04:33:18.007Z,16.59
2022-10-25T04:35:57.426Z,16.54
2022-10-25T04:38:33.408Z,16.51
2022-10-25T04:41:06.955Z,16.51
2022-10-25T04:43:39.821Z,16.58
2022-10-25T04:46:12.920Z,16.53
2022-10-25T04:48:45.509Z,16.56
2022-10-25T04:51:18.466Z,16.53
2022-10-25T04:53:53.865Z,16.54
2022-10-25T04:56:26.729Z,16.51
2022-10-25T04:59:02.702Z,16.57
2022-10-25T05:01:36.042Z,16.47
2022-10-25T05:04:09.138Z,16.46
2022-10-25T05:06:41.876Z,16.51
2022-10-25T05:09:16.484Z,16.56
2022-10-25T05:11:49.386Z,16.51
2022-10-25T05:14:22.452Z,16.46
2022-10-25T05:16:57.497Z,16.42
2022-10-25T05:19:31.191Z,16.42
2022-10-25T05:22:04.343Z,16.34
2022-10-25T05:24:38.758Z,16.40
2022-10-25T05:27:11.781Z,16.35
2022-10-25T05:29:44.372Z,16.42
2022-10-25T05:32:17.386Z,16.35
2022-10-25T05:34:50.237Z,16.30
2022-10-25T05:37:23.221Z,16.30
2022-10-25T05:39:58.025Z,16.28
2022-10-25T05:42:31.245Z,16.28
2022-10-25T05:45:04.802Z,16.30
2022-10-25T05:47:37.871Z,16.24
2022-10-25T05:50:11.067Z,16.29
2022-10-25T05:52:44.908Z,16.34
2022-10-25T05:55:21.585Z,16.25
2022-10-25T05:57:54.606Z,16.28
2022-10-25T06:00:29.474Z,16.24
2022-10-25T06:03:03.113Z,16.20
2022-10-25T06:05:36.015Z,16.17
2022-10-25T06:08:31.706Z,16.22
2022-10-25T06:11:08.029Z,16.34
2022-10-25T06:13:49.925Z,16.28
2022-10-25T06:16:25.431Z,16.26
2022-10-25T06:18:58.730Z,16.29
2022-10-25T06:21:31.897Z,16.24
2022-10-25T06:24:05.217Z,16.25
2022-10-25T06:26:39.333Z,16.19
2022-10-25T06:29:12.118Z,16.19
2022-10-25T06:31:45.086Z,16.22
2022-10-25T06:34:18.206Z,16.15
2022-10-25T06:36:51.228Z,16.15
2022-10-25T06:39:24.883Z,16.17
2022-10-25T06:41:59.111Z,16.18
2022-10-25T06:44:31.902Z,16.20
2022-10-25T06:47:16.526Z,16.18
2022-10-25T06:49:50.727Z,16.25
2022-10-25T06:52:23.493Z,16.23
2022-10-25T06:54:56.267Z,16.22
2022-10-25T06:57:30.427Z,16.16
2022-10-25T07:00:03.355Z,16.14
2022-10-25T07:02:36.019Z,16.18
2022-10-25T07:05:09.641Z,16.12
2022-10-25T07:07:42.423Z,16.10
2022-10-25T07:10:15.369Z,16.16
2022-10-25T07:12:49.631Z,16.09
2022-10-25T07:15:25.047Z,16.18
2022-10-25T07:17:57.944Z,16.16
2022-10-25T07:20:30.803Z,16.18
2022-10-25T07:23:06.600Z,16.14
2022-10-25T07:25:41.376Z,16.13
2022-10-25T07:28:15.514Z,16.11
2022-10-25T07:30:49.283Z,16.23
2022-10-25T07:33:24.873Z,16.15
2022-10-25T07:36:10.224Z,16.17
2022-10-25T07:38:43.894Z,16.21
2022-10-25T07:41:17.157Z,16.21
2022-10-25T07:43:51.357Z,16.28
2022-10-25T07:46:24.953Z,16.34
2022-10-25T07:48:57.835Z,16.33
2022-10-25T07:51:31.314Z,16.39
2022-10-25T07:54:04.248Z,16.37
2022-10-25T07:56:36.907Z,16.38
2022-10-25T07:59:11.137Z,16.43
2022-10-25T08:01:44.111Z,16.46
2022-10-25T08:04:19.247Z,16.45
2022-10-25T08:06:53.198Z,16.46
2022-10-25T08:09:39.075Z,16.52
2022-10-25T08:12:12.046Z,16.51
2022-10-25T08:14:47.565Z,16.61
2022-10-25T08:17:22.397Z,16.66
2022-10-25T08:19:56.411Z,16.67
2022-10-25T08:22:29.283Z,16.72
2022-10-25T08:25:02.840Z,16.70
2022-10-25T08:27:35.706Z,16.75
2022-10-25T08:30:10.689Z,16.75
2022-10-25T08:32:46.216Z,16.67
2022-10-25T08:35:19.718Z,16.80
2022-10-25T08:38:00.590Z,16.81
2022-10-25T08:40:44.047Z,16.84
2022-10-25T08:43:24.234Z,16.85
2022-10-25T08:46:02.107Z,16.95
2022-10-25T08:48:38.325Z,16.98
2022-10-25T08:51:22.430Z,17.08
2022-10-25T08:53:59.920Z,17.17
2022-10-25T08:56:39.490Z,17.22
2022-10-25T08:59:21.868Z,17.25
2022-10-25T09:01:59.446Z,17.34
2022-10-25T09:04:34.440Z,17.45
2022-10-25T09:07:13.895Z,17.48
2022-10-25T09:09:54.645Z,17.58
2022-10-25T09:12:40.915Z,17.62
2022-10-25T09:15:21.162Z,17.77
2022-10-25T09:17:55.685Z,17.75
2022-10-25T09:20:33.896Z,17.81
2022-10-25T09:23:17.058Z,17.89
2022-10-25T09:25:53.895Z,17.85
2022-10-25T09:28:35.162Z,17.91
2022-10-25T09:31:14.253Z,17.92
2022-10-25T09:33:49.249Z,18.00
2022-10-25T09:36:25.958Z,18.03
2022-10-25T09:39:02.940Z,18.02
2022-10-25T09:41:48.116Z,18.13
2022-10-25T09:44:39.941Z,18.14
2022-10-25T09:47:25.208Z,18.25
2022-10-25T09:50:02.950Z,18.37
2022-10-25T09:52:45.156Z,18.41
2022-10-25T09:55:41.169Z,18.47
2022-10-25T09:58:23.744Z,18.44
2022-10-25T10:00:59.654Z,18.55
2022-10-25T10:03:35.296Z,18.55
2022-10-25T10:06:18.755Z,18.61
2022-10-25T10:08:54.375Z,18.71
2022-10-25T10:11:27.786Z,18.69
2022-10-25T10:14:09.150Z,18.63
2022-10-25T10:16:46.139Z,18.60
2022-10-25T10:19:21.235Z,18.63
2022-10-25T10:21:58.242Z,18.69
2022-10-25T10:24:33.777Z,18.71
2022-10-25T10:27:15.457Z,18.72
2022-10-25T10:29:56.337Z,18.82
2022-10-25T10:32:34.736Z,18.90
2022-10-25T10:35:25.533Z,18.97
2022-10-25T10:38:25.846Z,19.08
2022-10-25T10:41:15.694Z,19.21
2022-10-25T10:43:49.872Z,19.24
2022-10-25T10:46:24.701Z,19.31
2022-10-25T10:48:59.118Z,19.39
2022-10-25T10:51:45.116Z,19.43
2022-10-25T10:54:47.175Z,19.53
2022-10-25T10:57:29.649Z,19.51
2022-10-25T11:00:03.385Z,19.52
2022-10-25T11:02:41.683Z,19.62
2022-10-25T11:05:26.544Z,19.47
2022-10-25T11:08:03.305Z,19.53
2022-10-25T11:10:38.306Z,19.63
2022-10-25T11:13:14.167Z,19.71
2022-10-25T11:16:21.958Z,19.70
2022-10-25T11:19:18.095Z,19.73
2022-10-25T11:22:04.659Z,19.79
2022-10-25T11:24:44.456Z,19.85
2022-10-25T11:27:29.159Z,19.93
2022-10-25T11:30:10.753Z,19.96
2022-10-25T11:33:06.247Z,20.04
2022-10-25T11:35:52.025Z,20.02
2022-10-25T11:38:40.086Z,20.02
2022-10-25T11:41:28.269Z,20.04
2022-10-25T11:44:18.788Z,20.17
2022-10-25T11:46:57.667Z,20.12
2022-10-25T11:49:44.445Z,20.09
2022-10-25T11:52:38.261Z,20.12
2022-10-25T11:55:22.681Z,20.11
2022-10-25T11:58:08.152Z,20.17
2022-10-25T12:00:53.527Z,20.07
2022-10-25T12:03:42.968Z,20.08
2022-10-25T12:06:24.224Z,20.18
2022-10-25T12:09:05.866Z,20.21
2022-10-25T12:11:44.458Z,20.18
2022-10-25T12:14:23.885Z,20.18
2022-10-25T12:17:01.293Z,20.13
2022-10-25T12:19:44.162Z,20.16
2022-10-25T12:22:21.190Z,20.08
2022-10-25T12:24:59.294Z,20.06
2022-10-25T12:27:33.649Z,20.07
2022-10-25T12:30:15.073Z,20.00
2022-10-25T12:32:55.069Z,19.98
2022-10-25T12:35:31.417Z,20.06
2022-10-25T12:38:10.818Z,20.13
2022-10-25T12:40:47.708Z,20.14
2022-10-25T12:43:26.138Z,20.08
2022-10-25T12:46:17.562Z,20.12
2022-10-25T12:49:14.416Z,20.16
2022-10-25T12:52:00.967Z,20.17
2022-10-25T12:55:10.931Z,20.13
2022-10-25T12:57:53.576Z,20.21
2022-10-25T13:00:27.687Z,20.27
2022-10-25T13:03:38.048Z,20.24
2022-10-25T13:06:23.326Z,20.27
2022-10-25T13:09:03.843Z,20.20
2022-10-25T13:11:40.170Z,20.29
2022-10-25T13:14:24.667Z,20.31
2022-10-25T13:17:36.644Z,20.29
2022-10-25T13:20:48.131Z,20.26
2022-10-25T13:23:59.381Z,20.26
2022-10-25T13:27:16.367Z,20.27
2022-10-25T13:30:22.421Z,20.14
2022-10-25T13:33:33.686Z,20.14
2022-10-25T13:36:09.503Z,20.18
2022-10-25T13:38:42.667Z,20.08
2022-10-25T13:41:18.079Z,20.14
2022-10-25T13:44:02.802Z,20.15
2022-10-25T13:46:38.693Z,20.10
2022-10-25T13:49:33.638Z,20.08
2022-10-25T13:52:22.217Z,20.06
2022-10-25T13:54:57.562Z,20.00
2022-10-25T13:57:52.470Z,19.94
2022-10-25T14:00:36.007Z,19.92
2022-10-25T14:03:47.220Z,19.88
2022-10-25T14:06:28.647Z,19.84
2022-10-25T14:09:13.703Z,19.86
2022-10-25T14:11:52.521Z,19.81
2022-10-25T14:14:29.567Z,19.68
2022-10-25T14:17:17.768Z,19.65
2022-10-25T14:19:55.078Z,19.65
2022-10-25T14:22:32.951Z,19.60
2022-10-25T14:25:19.867Z,19.59
2022-10-25T14:28:05.831Z,19.49
2022-10-25T14:30:43.859Z,19.48
2022-10-25T14:33:26.461Z,19.46
2022-10-25T14:36:09.772Z,19.39
2022-10-25T14:38:51.020Z,19.45
2022-10-25T14:41:26.974Z,19.37
2022-10-25T14:44:00.551Z,19.36
2022-10-25T14:46:34.024Z,19.30
2022-10-25T14:49:10.769Z,19.27
2022-10-25T14:51:45.555Z,19.27
2022-10-25T14:54:28.301Z,19.26
2022-10-25T14:57:04.848Z,19.21
2022-10-25T14:59:44.940Z,19.24
2022-10-25T15:02:23.387Z,19.20
2022-10-25T15:04:59.877Z,19.23
2022-10-25T15:07:34.883Z,19.11
2022-10-25T15:10:28.736Z,19.12
2022-10-25T15:13:05.888Z,19.10
2022-10-25T15:15:42.374Z,19.15
2022-10-25T15:18:28.337Z,19.09
2022-10-25T15:21:08.112Z,19.09
2022-10-25T15:23:44.999Z,19.01
2022-10-25T15:26:22.721Z,18.93
2022-10-25T15:28:58.769Z,19.00
2022-10-25T15:31:36.307Z,18.94
2022-10-25T15:34:16.013Z,18.88
2022-10-25T15:36:50.017Z,18.86
2022-10-25T15:39:27.385Z,18.80
2022-10-25T15:42:00.451Z,18.95
2022-10-25T15:44:34.684Z,18.99
2022-10-25T15:47:21.103Z,18.94
2022-10-25T15:49:54.709Z,18.82
2022-10-25T15:52:29.938Z,18.83
2022-10-25T15:55:17.389Z,18.71
2022-10-25T15:57:51.180Z,18.78
2022-10-25T16:00:28.159Z,18.67
2022-10-25T16:03:01.990Z,18.66
2022-10-25T16:05:36.662Z,18.67
2022-10-25T16:08:10.436Z,18.64
2022-10-25T16:10:43.358Z,18.54
2022-10-25T16:13:19.643Z,18.40
2022-10-25T16:15:54.254Z,18.54
2022-10-25T16:18:27.646Z,18.55
2022-10-25T16:21:00.919Z,18.45
2022-10-25T16:23:36.730Z,18.44
2022-10-25T16:26:22.849Z,18.40
2022-10-25T16:28:55.909Z,18.41
2022-10-25T16:31:29.963Z,18.40
2022-10-25T16:34:02.932Z,18.44
2022-10-25T16:36:39.054Z,18.46
2022-10-25T16:39:12.557Z,18.41
2022-10-25T16:41:47.264Z,18.33
2022-10-25T16:44:21.052Z,18.29
2022-10-25T16:47:00.038Z,18.30
2022-10-25T16:52:23.057Z,18.25
2022-10-25T16:54:59.945Z,18.25
2022-10-25T16:57:36.120Z,18.21
2022-10-25T17:00:15.391Z,18.15
2022-10-25T17:02:56.809Z,18.13
2022-10-25T17:05:35.081Z,18.05
2022-10-25T17:08:26.870Z,18.02
2022-10-25T17:11:10.277Z,18.05
2022-10-25T17:13:49.124Z,18.05
2022-10-25T17:16:24.701Z,18.00
2022-10-25T17:19:06.037Z,17.98
2022-10-25T17:21:40.427Z,17.90
2022-10-25T17:24:16.800Z,17.92
2022-10-25T17:26:56.944Z,17.97
2022-10-25T17:29:39.586Z,17.89
2022-10-25T17:32:22.272Z,17.80
2022-10-25T17:34:59.583Z,17.83
2022-10-25T17:37:33.082Z,17.79
2022-10-25T17:40:09.439Z,17.77
2022-10-25T17:42:42.497Z,17.75
2022-10-25T17:45:15.143Z,17.63
2022-10-25T17:47:48.543Z,17.63
2022-10-25T17:50:23.499Z,17.59
2022-10-25T17:52:56.629Z,17.55
2022-10-25T17:55:33.165Z,17.54
2022-10-25T17:58:06.800Z,17.49
2022-10-25T18:00:42.081Z,17.45
2022-10-25T18:03:16.272Z,17.39
2022-10-25T18:05:50.668Z,17.43
2022-10-25T18:08:23.591Z,17.44
2022-10-25T18:10:56.414Z,17.38
2022-10-25T18:13:33.652Z,17.49
2022-10-25T18:18:40.967Z,17.34
2022-10-25T18:21:19.284Z,17.34
2022-10-25T18:23:56.005Z,17.34
2022-10-25T18:26:33.347Z,17.32
2022-10-25T18:29:06.412Z,17.25
2022-10-25T18:31:39.266Z,17.28
2022-10-25T18:34:12.208Z,17.25
2022-10-25T18:36:46.725Z,17.21
2022-10-25T18:39:19.644Z,17.17
2022-10-25T18:41:52.644Z,17.14
2022-10-25T18:44:25.582Z,17.09
2022-10-25T18:47:00.317Z,17.11
2022-10-25T18:49:33.302Z,17.20
2022-10-25T18:52:11.934Z,17.15
2022-10-25T18:54:46.924Z,17.17
2022-10-25T18:57:21.397Z,17.10
2022-10-25T18:59:54.369Z,17.16
2022-10-25T19:02:34.131Z,17.16
2022-10-25T19:05:11.001Z,17.01
2022-10-25T19:07:48.146Z,17.06
2022-10-25T19:10:23.038Z,17.07
2022-10-25T19:12:56.169Z,17.08
2022-10-25T19:15:29.526Z,17.05
2022-10-25T19:18:10.043Z,17.03
2022-10-25T19:20:50.830Z,17.03
2022-10-25T19:23:26.467Z,16.98
2022-10-25T19:26:04.577Z,16.98
2022-10-25T19:28:44.796Z,16.88
2022-10-25T19:31:18.741Z,16.94
2022-10-25T19:33:52.953Z,16.99
2022-10-25T19:36:25.990Z,16.83
2022-10-25T19:39:00.293Z,16.97
2022-10-25T19:41:39.406Z,16.79
2022-10-25T19:44:12.458Z,16.81
2022-10-25T19:46:49.273Z,16.70
2022-10-25T19:49:22.320Z,16.76
2022-10-25T19:51:57.441Z,16.75
2022-10-25T19:54:33.050Z,16.77
2022-10-25T19:57:06.628Z,16.76
2022-10-25T19:59:39.725Z,16.75
2022-10-25T20:02:12.521Z,16.74
2022-10-25T20:04:45.516Z,16.72
2022-10-25T20:07:20.876Z,16.68
2022-10-25T20:09:55.036Z,16.77
2022-10-25T20:12:30.554Z,16.79
2022-10-25T20:15:03.404Z,16.85
2022-10-25T20:17:39.462Z,16.71
2022-10-25T20:20:12.896Z,16.70
2022-10-25T20:22:48.975Z,16.75
2022-10-25T20:25:23.396Z,16.71
2022-10-25T20:27:57.489Z,16.67
2022-10-25T20:30:31.546Z,16.66
2022-10-25T20:33:06.021Z,16.65
2022-10-25T20:35:39.996Z,16.79
2022-10-25T20:38:13.198Z,16.67
2022-10-25T20:40:47.408Z,16.66
2022-10-25T20:43:22.163Z,16.60
2022-10-25T20:45:55.581Z,16.57
2022-10-25T20:48:28.712Z,16.54
2022-10-25T20:51:04.244Z,16.55
2022-10-25T20:53:40.237Z,16.50
2022-10-25T20:56:14.928Z,16.37
2022-10-25T20:58:50.840Z,16.40
2022-10-25T21:01:26.223Z,16.44
2022-10-25T21:03:59.171Z,16.42
2022-10-25T21:06:32.031Z,16.33
2022-10-25T21:09:05.115Z,16.25
2022-10-25T21:11:39.602Z,16.21
2022-10-25T21:14:13.714Z,16.34
2022-10-25T21:16:46.658Z,16.32
2022-10-25T21:19:19.611Z,16.31
2022-10-25T21:21:55.319Z,16.30
2022-10-25T21:24:30.474Z,16.26
2022-10-25T21:27:04.860Z,16.36
2022-10-25T21:29:38.542Z,16.21
2022-10-25T21:32:11.404Z,16.11
2022-10-25T21:34:44.156Z,16.12
2022-10-25T21:37:17.157Z,16.13
2022-10-25T21:39:49.873Z,16.23
2022-10-25T21:42:24.093Z,16.18
2022-10-25T21:44:56.845Z,16.17
2022-10-25T21:47:29.620Z,16.13
2022-10-25T21:50:02.793Z,16.17
2022-10-25T21:52:35.922Z,16.09
2022-10-25T21:55:10.032Z,16.11
2022-10-25T21:57:51.831Z,16.14
2022-10-25T22:00:29.681Z,16.03
2022-10-25T22:03:02.621Z,16.03
2022-10-25T22:05:35.368Z,16.06
2022-10-25T22:08:08.114Z,16.02
2022-10-25T22:10:41.446Z,16.11
2022-10-25T22:13:15.712Z,16.00
2022-10-25T22:15:56.473Z,16.03
2022-10-25T22:18:29.830Z,16.00
2022-10-25T22:21:04.837Z,15.97
2022-10-25T22:23:37.881Z,16.00
2022-10-25T22:26:12.238Z,15.88
2022-10-25T22:28:46.427Z,15.94
2022-10-25T22:31:20.338Z,15.89
2022-10-25T22:33:54.729Z,15.89
2022-10-25T22:36:29.760Z,15.94
2022-10-25T22:39:03.727Z,15.83
2022-10-25T22:41:36.848Z,15.86
2022-10-25T22:44:13.229Z,15.86
2022-10-25T22:46:46.073Z,15.84
2022-10-25T22:49:21.726Z,15.87
2022-10-25T22:51:54.462Z,15.85
2022-10-25T22:54:28.801Z,15.84
2022-10-25T22:57:01.550Z,15.81
2022-10-25T22:59:35.922Z,15.88
2022-10-25T23:02:08.791Z,15.89
2022-10-25T23:04:41.506Z,15.84
2022-10-25T23:07:14.422Z,15.79
2022-10-25T23:09:47.252Z,15.78
2022-10-25T23:12:21.811Z,15.85
2022-10-25T23:14:56.062Z,15.84
2022-10-25T23:17:29.295Z,15.87
2022-10-25T23:20:02.343Z,15.84
2022-10-25T23:22:37.510Z,15.86
2022-10-25T23:25:13.182Z,15.87
2022-10-25T23:27:46.129Z,15.84
2022-10-25T23:30:20.175Z,15.87
2022-10-25T23:32:53.558Z,15.82
2022-10-25T23:35:26.238Z,15.86
2022-10-25T23:37:59.101Z,15.79
2022-10-25T23:40:32.518Z,15.78
2022-10-25T23:43:05.521Z,15.81
2022-10-25T23:45:39.883Z,15.78
2022-10-25T23:48:12.716Z,15.83
2022-10-25T23:50:45.699Z,15.80
2022-10-25T23:53:18.474Z,15.81
2022-10-25T23:55:52.629Z,15.86
2022-10-25T23:58:25.630Z,15.81
